createdAt,value
2023-04-11T00:02:08.202Z,11.87
2023-04-11T00:04:39.133Z,11.81
2023-04-11T00:07:07.680Z,11.80
2023-04-11T00:09:35.733Z,11.76
2023-04-11T00:12:03.437Z,11.75
2023-04-11T00:14:32.297Z,11.77
2023-04-11T00:17:02.008Z,11.81
2023-04-11T00:19:29.776Z,11.77
2023-04-11T00:21:58.437Z,11.77
2023-04-11T00:24:27.002Z,11.77
2023-04-11T00:26:54.928Z,11.80
2023-04-11T00:29:22.649Z,11.82
2023-04-11T00:31:51.256Z,11.85
2023-04-11T00:34:20.603Z,11.80
2023-04-11T00:36:48.513Z,11.80
2023-04-11T00:39:18.801Z,11.77
2023-04-11T00:41:46.581Z,11.72
2023-04-11T00:44:14.600Z,11.69
2023-04-11T00:46:46.128Z,11.66
2023-04-11T00:49:14.526Z,11.69
2023-04-11T00:51:43.697Z,11.70
2023-04-11T00:54:12.087Z,11.69
2023-04-11T00:56:40.713Z,11.66
2023-04-11T00:59:08.461Z,11.64
2023-04-11T01:01:36.575Z,11.65
2023-04-11T01:04:05.409Z,11.59
2023-04-11T01:06:33.795Z,11.60
2023-04-11T01:09:04.838Z,11.62
2023-04-11T01:11:33.536Z,11.64
2023-04-11T01:14:01.590Z,11.65
2023-04-11T01:16:29.359Z,11.56
2023-04-11T01:18:57.332Z,11.51
2023-04-11T01:21:27.082Z,11.49
2023-04-11T01:23:58.469Z,11.48
2023-04-11T01:26:26.325Z,11.49
2023-04-11T01:28:54.246Z,11.49
2023-04-11T01:31:22.567Z,11.43
2023-04-11T01:33:50.650Z,11.40
2023-04-11T01:36:18.441Z,11.38
2023-04-11T01:38:46.226Z,11.36
2023-04-11T01:41:17.811Z,11.38
2023-04-11T01:43:46.132Z,11.33
2023-04-11T01:46:14.881Z,11.28
2023-04-11T01:48:43.333Z,11.23
2023-04-11T01:51:11.098Z,11.21
2023-04-11T01:53:38.925Z,11.20
2023-04-11T01:56:07.752Z,11.22
2023-04-11T01:58:36.835Z,11.21
2023-04-11T02:01:05.507Z,11.19
2023-04-11T02:03:33.420Z,11.18
2023-04-11T02:06:01.162Z,11.21
2023-04-11T02:08:28.914Z,11.16
2023-04-11T02:10:56.614Z,11.12
2023-04-11T02:13:24.388Z,11.04
2023-04-11T02:15:53.521Z,10.99
2023-04-11T02:18:21.271Z,10.98
2023-04-11T02:20:50.699Z,10.97
2023-04-11T02:23:18.411Z,10.94
2023-04-11T02:25:46.172Z,10.96
2023-04-11T02:28:13.864Z,10.97
2023-04-11T02:30:41.633Z,10.99
2023-04-11T02:33:10.761Z,11.00
2023-04-11T02:35:38.587Z,10.98
2023-04-11T02:38:06.261Z,10.99
2023-04-11T02:40:33.981Z,10.98
2023-04-11T02:43:02.113Z,10.95
2023-04-11T02:45:29.844Z,10.97
2023-04-11T02:47:58.420Z,10.93
2023-04-11T02:50:27.712Z,10.88
2023-04-11T02:52:55.666Z,10.85
2023-04-11T02:55:24.140Z,10.85
2023-04-11T02:57:52.296Z,10.83
2023-04-11T03:00:21.384Z,10.84
2023-04-11T03:02:50.124Z,10.81
2023-04-11T03:05:17.900Z,10.80
2023-04-11T03:07:47.040Z,10.88
2023-04-11T03:10:14.830Z,10.90
2023-04-11T03:12:42.687Z,10.89
2023-04-11T03:15:10.959Z,10.82
2023-04-11T03:17:38.690Z,10.79
2023-04-11T03:20:08.275Z,10.78
2023-04-11T03:22:36.024Z,10.80
2023-04-11T03:25:06.358Z,10.77
2023-04-11T03:27:34.091Z,10.79
2023-04-11T03:30:01.792Z,10.75
2023-04-11T03:32:29.602Z,10.69
2023-04-11T03:35:01.333Z,10.77
2023-04-11T03:37:29.170Z,10.74
2023-04-11T03:39:56.981Z,10.68
2023-04-11T03:42:26.098Z,10.71
2023-04-11T03:44:53.773Z,10.68
2023-04-11T03:47:21.561Z,10.70
2023-04-11T03:49:49.225Z,10.65
2023-04-11T03:52:17.542Z,10.67
2023-04-11T03:54:47.542Z,10.69
2023-04-11T03:57:15.632Z,10.66
2023-04-11T03:59:44.671Z,10.64
2023-04-11T04:02:12.637Z,10.54
2023-04-11T04:04:43.447Z,10.49
2023-04-11T04:07:11.207Z,10.54
2023-04-11T04:09:38.936Z,10.49
2023-04-11T04:12:07.620Z,10.46
2023-04-11T04:14:35.514Z,10.38
2023-04-11T04:17:04.643Z,10.28
2023-04-11T04:19:32.349Z,10.33
2023-04-11T04:22:00.053Z,10.32
2023-04-11T04:24:27.880Z,10.28
2023-04-11T04:26:57.915Z,10.30
2023-04-11T04:29:34.086Z,10.28
2023-04-11T04:32:10.691Z,10.21
2023-04-11T04:34:41.700Z,10.21
2023-04-11T04:37:09.355Z,10.24
2023-04-11T04:39:38.137Z,10.19
2023-04-11T04:42:06.002Z,10.16
2023-04-11T04:44:34.256Z,10.18
2023-04-11T04:47:01.956Z,10.17
2023-04-11T04:49:31.060Z,10.17
2023-04-11T04:51:58.727Z,10.10
2023-04-11T04:54:26.537Z,10.04
2023-04-11T04:56:54.261Z,10.03
2023-04-11T04:59:22.140Z,10.05
2023-04-11T05:01:51.579Z,9.99
2023-04-11T05:04:19.785Z,9.98
2023-04-11T05:06:48.928Z,10.00
2023-04-11T05:09:16.642Z,9.98
2023-04-11T05:11:44.700Z,9.99
2023-04-11T05:14:12.365Z,9.95
2023-04-11T05:16:42.079Z,10.01
2023-04-11T05:19:10.076Z,9.93
2023-04-11T05:21:38.110Z,9.94
2023-04-11T05:24:07.507Z,10.01
2023-04-11T05:26:35.404Z,10.02
2023-04-11T05:29:03.110Z,10.07
2023-04-11T05:31:30.923Z,10.14
2023-04-11T05:33:59.083Z,10.20
2023-04-11T05:36:28.339Z,10.18
2023-04-11T05:38:56.135Z,10.21
2023-04-11T05:41:25.502Z,10.17
2023-04-11T05:43:53.235Z,10.16
2023-04-11T05:46:20.965Z,10.10
2023-04-11T05:48:48.752Z,10.04
2023-04-11T05:51:16.533Z,10.04
2023-04-11T05:53:44.945Z,10.09
2023-04-11T05:56:12.957Z,10.08
2023-04-11T05:58:43.945Z,10.09
2023-04-11T06:01:14.303Z,10.14
2023-04-11T06:03:42.208Z,10.22
2023-04-11T06:06:10.228Z,10.26
2023-04-11T06:08:38.158Z,10.29
2023-04-11T06:11:06.460Z,10.35
2023-04-11T06:13:34.155Z,10.41
2023-04-11T06:16:03.585Z,10.47
2023-04-11T06:18:31.575Z,10.53
2023-04-11T06:20:59.348Z,10.68
2023-04-11T06:23:27.012Z,10.77
2023-04-11T06:25:54.762Z,10.84
2023-04-11T06:28:22.472Z,10.94
2023-04-11T06:30:50.377Z,10.88
2023-04-11T06:33:19.537Z,10.85
2023-04-11T06:35:47.395Z,10.90
2023-04-11T06:38:15.229Z,10.92
2023-04-11T06:40:42.977Z,10.97
2023-04-11T06:43:11.259Z,11.00
2023-04-11T06:45:39.088Z,11.03
2023-04-11T06:48:07.594Z,11.03
2023-04-11T06:50:40.128Z,11.04
2023-04-11T06:53:07.715Z,11.03
2023-04-11T06:55:35.987Z,11.10
2023-04-11T06:58:04.180Z,11.03
2023-04-11T07:00:32.031Z,11.11
2023-04-11T07:03:01.126Z,11.18
2023-04-11T07:05:29.088Z,11.15
2023-04-11T07:07:58.315Z,11.16
2023-04-11T07:10:26.143Z,11.20
2023-04-11T07:12:53.977Z,11.18
2023-04-11T07:15:21.776Z,11.32
2023-04-11T07:17:52.142Z,11.40
2023-04-11T07:20:20.883Z,11.51
2023-04-11T07:22:48.812Z,11.53
2023-04-11T07:25:18.562Z,11.52
2023-04-11T07:27:46.450Z,11.51
2023-04-11T07:30:15.496Z,11.64
2023-04-11T07:32:43.404Z,11.67
2023-04-11T07:35:11.533Z,11.78
2023-04-11T07:37:39.392Z,11.85
2023-04-11T07:40:11.745Z,11.86
2023-04-11T07:42:41.028Z,11.82
2023-04-11T07:45:10.001Z,11.87
2023-04-11T07:47:38.072Z,11.87
2023-04-11T07:50:06.867Z,11.83
2023-04-11T07:52:35.401Z,11.85
2023-04-11T07:55:04.175Z,11.92
2023-04-11T07:57:32.106Z,11.90
2023-04-11T08:00:01.911Z,11.99
2023-04-11T08:02:29.957Z,12.14
2023-04-11T08:04:57.979Z,12.19
2023-04-11T08:07:26.161Z,12.24
2023-04-11T08:09:54.043Z,12.32
2023-04-11T08:12:21.869Z,12.28
2023-04-11T08:14:49.650Z,12.29
2023-04-11T08:17:27.724Z,12.34
2023-04-11T08:19:57.594Z,12.24
2023-04-11T08:22:26.200Z,12.27
2023-04-11T08:24:54.016Z,12.29
2023-04-11T08:27:21.798Z,12.37
2023-04-11T08:29:49.540Z,12.34
2023-04-11T08:32:18.924Z,12.42
2023-04-11T08:34:46.866Z,12.50
2023-04-11T08:37:14.650Z,12.60
2023-04-11T08:39:42.463Z,12.59
2023-04-11T08:42:22.611Z,12.49
2023-04-11T08:44:54.237Z,12.33
2023-04-11T08:47:23.662Z,12.28
2023-04-11T08:49:51.712Z,12.27
2023-04-11T08:52:20.328Z,12.22
2023-04-11T08:54:48.586Z,12.27
2023-04-11T08:57:26.231Z,12.34
2023-04-11T08:59:55.473Z,12.46
2023-04-11T09:02:24.810Z,12.60
2023-04-11T09:04:52.789Z,12.75
2023-04-11T09:07:21.978Z,12.68
2023-04-11T09:09:49.787Z,12.64
2023-04-11T09:12:22.927Z,12.69
2023-04-11T09:14:50.789Z,12.67
2023-04-11T09:17:18.658Z,12.85
2023-04-11T09:19:49.315Z,13.03
2023-04-11T09:22:17.493Z,13.08
2023-04-11T09:24:46.800Z,13.18
2023-04-11T09:27:16.811Z,13.09
2023-04-11T09:29:46.414Z,13.02
2023-04-11T09:32:32.031Z,12.94
2023-04-11T09:35:12.515Z,12.95
2023-04-11T09:37:45.093Z,12.90
2023-04-11T09:40:14.657Z,13.07
2023-04-11T09:42:43.162Z,13.11
2023-04-11T09:45:29.316Z,13.09
2023-04-11T09:48:00.469Z,13.05
2023-04-11T09:50:29.895Z,13.20
2023-04-11T09:52:59.315Z,13.30
2023-04-11T09:55:27.602Z,13.39
2023-04-11T09:57:56.292Z,13.43
2023-04-11T10:00:29.159Z,13.53
2023-04-11T10:02:58.098Z,13.69
2023-04-11T10:05:28.087Z,13.72
2023-04-11T10:08:03.749Z,13.84
2023-04-11T10:10:31.659Z,14.07
2023-04-11T10:12:59.561Z,14.19
2023-04-11T10:15:27.889Z,14.16
2023-04-11T10:18:19.532Z,14.28
2023-04-11T10:20:50.247Z,14.30
2023-04-11T10:23:19.689Z,14.33
2023-04-11T10:25:55.449Z,14.48
2023-04-11T10:28:34.782Z,14.42
2023-04-11T10:31:04.829Z,14.34
2023-04-11T10:33:33.413Z,14.42
2023-04-11T10:36:03.638Z,14.56
2023-04-11T10:38:51.658Z,14.58
2023-04-11T10:41:27.894Z,14.69
2023-04-11T10:44:14.106Z,14.82
2023-04-11T10:46:46.382Z,14.88
2023-04-11T10:49:14.324Z,14.93
2023-04-11T10:51:42.162Z,14.92
2023-04-11T10:54:26.099Z,15.00
2023-04-11T10:56:57.476Z,14.97
2023-04-11T10:59:59.838Z,15.06
2023-04-11T11:02:39.095Z,14.96
2023-04-11T11:05:18.259Z,14.79
2023-04-11T11:07:51.157Z,14.91
2023-04-11T11:10:39.074Z,15.21
2023-04-11T11:13:06.889Z,15.17
2023-04-11T11:15:37.735Z,15.03
2023-04-11T11:18:08.166Z,14.97
2023-04-11T11:20:37.382Z,14.95
2023-04-11T11:23:09.367Z,14.83
2023-04-11T11:25:38.811Z,14.87
2023-04-11T11:28:08.893Z,14.91
2023-04-11T11:30:37.674Z,15.09
2023-04-11T11:33:19.125Z,15.39
2023-04-11T11:35:52.045Z,15.55
2023-04-11T11:38:20.455Z,15.54
2023-04-11T11:40:50.304Z,15.58
2023-04-11T11:43:18.185Z,15.65
2023-04-11T11:45:46.518Z,15.66
2023-04-11T11:48:21.729Z,15.63
2023-04-11T11:50:56.855Z,15.49
2023-04-11T11:53:25.580Z,15.48
2023-04-11T11:55:56.827Z,15.31
2023-04-11T11:58:25.321Z,15.04
2023-04-11T12:00:53.861Z,15.20
2023-04-11T12:03:24.164Z,15.23
2023-04-11T12:05:52.965Z,15.26
2023-04-11T12:08:22.749Z,15.22
2023-04-11T12:10:51.921Z,15.29
2023-04-11T12:13:23.548Z,15.54
2023-04-11T12:15:53.323Z,15.82
2023-04-11T12:18:22.122Z,15.90
2023-04-11T12:20:50.342Z,15.66
2023-04-11T12:23:18.296Z,15.79
2023-04-11T12:25:47.623Z,15.98
2023-04-11T12:28:15.535Z,16.08
2023-04-11T12:30:44.680Z,15.94
2023-04-11T12:33:12.444Z,15.93
2023-04-11T12:35:40.341Z,15.96
2023-04-11T12:38:08.193Z,15.95
2023-04-11T12:40:35.988Z,16.02
2023-04-11T12:43:03.776Z,15.98
2023-04-11T12:45:32.500Z,15.95
2023-04-11T12:48:01.703Z,15.99
2023-04-11T12:50:29.646Z,16.20
2023-04-11T12:52:57.526Z,16.32
2023-04-11T12:55:25.570Z,16.44
2023-04-11T12:57:53.448Z,16.51
2023-04-11T13:00:21.574Z,16.46
2023-04-11T13:02:50.017Z,16.39
2023-04-11T13:05:19.877Z,16.17
2023-04-11T13:07:47.724Z,16.04
2023-04-11T13:10:16.642Z,15.94
2023-04-11T13:12:45.918Z,15.85
2023-04-11T13:15:15.373Z,15.85
2023-04-11T13:17:43.613Z,15.86
2023-04-11T13:20:12.640Z,15.79
2023-04-11T13:22:43.480Z,15.73
2023-04-11T13:25:12.075Z,15.56
2023-04-11T13:27:40.398Z,15.57
2023-04-11T13:30:10.162Z,15.60
2023-04-11T13:32:39.265Z,15.72
2023-04-11T13:35:08.284Z,16.00
2023-04-11T13:37:36.550Z,16.29
2023-04-11T13:40:11.140Z,16.53
2023-04-11T13:42:39.318Z,16.46
2023-04-11T13:45:08.592Z,16.27
2023-04-11T13:47:38.734Z,16.20
2023-04-11T13:50:08.692Z,16.18
2023-04-11T13:52:36.725Z,15.84
2023-04-11T13:55:07.055Z,15.59
2023-04-11T13:57:34.852Z,15.62
2023-04-11T14:00:05.643Z,15.73
2023-04-11T14:02:33.578Z,15.70
2023-04-11T14:05:01.921Z,15.85
2023-04-11T14:07:29.805Z,15.90
2023-04-11T14:09:57.732Z,16.05
2023-04-11T14:12:27.586Z,16.12
2023-04-11T14:14:55.878Z,16.04
2023-04-11T14:17:23.987Z,16.03
2023-04-11T14:19:52.272Z,16.19
2023-04-11T14:22:20.603Z,16.36
2023-04-11T14:24:48.522Z,16.34
2023-04-11T14:27:16.905Z,16.44
2023-04-11T14:29:47.437Z,16.48
2023-04-11T14:32:15.504Z,16.52
2023-04-11T14:34:43.527Z,16.36
2023-04-11T14:37:11.501Z,16.23
2023-04-11T14:39:40.399Z,16.17
2023-04-11T14:42:09.196Z,16.25
2023-04-11T14:44:39.265Z,16.33
2023-04-11T14:47:08.637Z,16.42
2023-04-11T14:49:37.119Z,16.45
2023-04-11T14:52:05.163Z,16.46
2023-04-11T14:54:33.178Z,16.41
2023-04-11T14:57:01.700Z,16.35
2023-04-11T14:59:29.772Z,16.36
2023-04-11T15:01:58.221Z,16.17
2023-04-11T15:04:27.830Z,16.40
2023-04-11T15:06:56.642Z,16.60
2023-04-11T15:09:24.524Z,16.63
2023-04-11T15:11:52.538Z,16.63
2023-04-11T15:14:20.926Z,16.56
2023-04-11T15:16:48.982Z,16.38
2023-04-11T15:19:16.769Z,16.51
2023-04-11T15:21:47.229Z,16.57
2023-04-11T15:24:17.138Z,16.53
2023-04-11T15:26:46.610Z,16.44
2023-04-11T15:29:16.006Z,16.31
2023-04-11T15:31:44.097Z,16.27
2023-04-11T15:34:14.127Z,16.21
2023-04-11T15:36:43.063Z,16.38
2023-04-11T15:39:12.374Z,16.46
2023-04-11T15:41:41.405Z,16.42
2023-04-11T15:44:09.681Z,16.42
2023-04-11T15:46:38.331Z,16.33
2023-04-11T15:49:06.274Z,16.25
2023-04-11T15:51:36.543Z,16.20
2023-04-11T15:54:07.473Z,15.99
2023-04-11T15:56:37.117Z,16.08
2023-04-11T15:59:10.993Z,16.21
2023-04-11T16:01:40.660Z,16.26
2023-04-11T16:04:09.302Z,16.26
2023-04-11T16:06:37.785Z,16.08
2023-04-11T16:09:05.838Z,15.95
2023-04-11T16:11:35.063Z,15.86
2023-04-11T16:14:05.156Z,15.77
2023-04-11T16:16:33.431Z,15.70
2023-04-11T16:19:02.334Z,15.71
2023-04-11T16:21:31.530Z,15.74
2023-04-11T16:24:00.199Z,15.66
2023-04-11T16:26:28.741Z,15.64
2023-04-11T16:28:57.347Z,15.67
2023-04-11T16:31:29.543Z,15.67
2023-04-11T16:33:58.099Z,15.66
2023-04-11T16:36:27.631Z,15.62
2023-04-11T16:38:56.086Z,15.52
2023-04-11T16:41:24.567Z,15.46
2023-04-11T16:43:52.566Z,15.44
2023-04-11T16:46:25.956Z,15.45
2023-04-11T16:49:07.573Z,15.39
2023-04-11T16:51:37.416Z,15.36
2023-04-11T16:54:09.956Z,15.28
2023-04-11T16:56:39.450Z,15.29
2023-04-11T16:59:08.137Z,15.30
2023-04-11T17:01:36.970Z,15.25
2023-04-11T17:04:06.970Z,15.19
2023-04-11T17:06:35.648Z,15.17
2023-04-11T17:09:04.290Z,15.09
2023-04-11T17:11:32.085Z,14.99
2023-04-11T17:14:00.094Z,14.95
2023-04-11T17:16:30.574Z,14.95
2023-04-11T17:19:00.922Z,14.88
2023-04-11T17:21:34.165Z,14.85
2023-04-11T17:24:02.181Z,14.81
2023-04-11T17:26:30.026Z,14.76
2023-04-11T17:28:57.855Z,14.76
2023-04-11T17:31:27.997Z,14.70
2023-04-11T17:33:56.353Z,14.67
2023-04-11T17:36:24.779Z,14.58
2023-04-11T17:38:56.959Z,14.49
2023-04-11T17:41:24.718Z,14.45
2023-04-11T17:43:52.661Z,14.40
2023-04-11T17:46:20.604Z,14.30
2023-04-11T17:48:48.462Z,14.26
2023-04-11T17:51:16.527Z,14.22
2023-04-11T17:53:44.364Z,14.18
2023-04-11T17:56:14.456Z,14.17
2023-04-11T17:58:47.201Z,14.14
2023-04-11T18:01:15.879Z,14.09
2023-04-11T18:03:44.356Z,14.02
2023-04-11T18:06:12.301Z,14.00
2023-04-11T18:11:13.790Z,13.88
2023-04-11T18:13:43.775Z,13.83
2023-04-11T18:16:12.079Z,13.80
2023-04-11T18:18:42.553Z,13.78
2023-04-11T18:21:10.387Z,13.73
2023-04-11T18:23:39.558Z,13.72
2023-04-11T18:26:07.353Z,13.63
2023-04-11T18:28:37.722Z,13.61
2023-04-11T18:31:06.974Z,13.58
2023-04-11T18:33:37.367Z,13.56
2023-04-11T18:36:07.530Z,13.54
2023-04-11T18:38:35.636Z,13.49
2023-04-11T18:41:07.276Z,13.47
2023-04-11T18:43:38.451Z,13.46
2023-04-11T18:46:07.812Z,13.47
2023-04-11T18:48:36.605Z,13.48
2023-04-11T18:51:05.107Z,13.49
2023-04-11T18:53:34.873Z,13.52
2023-04-11T18:56:04.054Z,13.44
2023-04-11T18:58:34.442Z,13.40
2023-04-11T19:01:14.851Z,13.39
2023-04-11T19:03:46.323Z,13.38
2023-04-11T19:06:15.795Z,13.35
2023-04-11T19:08:43.770Z,13.33
2023-04-11T19:11:11.660Z,13.31
2023-04-11T19:13:39.513Z,13.28
2023-04-11T19:16:09.059Z,13.26
2023-04-11T19:18:37.013Z,13.26
2023-04-11T19:21:08.112Z,13.22
2023-04-11T19:23:35.956Z,13.19
2023-04-11T19:26:03.879Z,13.18
2023-04-11T19:28:31.855Z,13.14
2023-04-11T19:30:59.713Z,13.10
2023-04-11T19:33:29.334Z,13.09
2023-04-11T19:35:57.263Z,13.02
2023-04-11T19:38:25.161Z,13.01
2023-04-11T19:40:53.251Z,13.01
2023-04-11T19:43:21.188Z,12.98
2023-04-11T19:45:49.182Z,13.01
2023-04-11T19:48:17.501Z,13.01
2023-04-11T19:50:46.851Z,13.04
2023-04-11T19:53:16.735Z,13.04
2023-04-11T19:55:45.517Z,13.04
2023-04-11T19:58:13.292Z,13.05
2023-04-11T20:00:41.868Z,13.08
2023-04-11T20:03:14.528Z,13.14
2023-04-11T20:05:42.706Z,13.13
2023-04-11T20:08:12.031Z,13.13
2023-04-11T20:10:40.753Z,13.12
2023-04-11T20:13:10.994Z,13.12
2023-04-11T20:15:39.141Z,13.11
2023-04-11T20:18:07.141Z,13.11
2023-04-11T20:20:36.810Z,13.09
2023-04-11T20:23:05.072Z,13.10
2023-04-11T20:25:35.592Z,13.13
2023-04-11T20:28:03.522Z,13.14
2023-04-11T20:30:32.460Z,13.14
2023-04-11T20:33:01.702Z,13.13
2023-04-11T20:35:29.663Z,13.12
2023-04-11T20:37:57.527Z,13.10
2023-04-11T20:40:25.504Z,13.08
2023-04-11T20:42:56.612Z,13.04
2023-04-11T20:45:25.712Z,13.00
2023-04-11T20:47:55.015Z,12.98
2023-04-11T20:50:22.868Z,12.93
2023-04-11T20:52:52.806Z,12.90
2023-04-11T20:55:21.727Z,12.87
2023-04-11T20:57:49.594Z,12.84
2023-04-11T21:00:20.928Z,12.85
2023-04-11T21:02:50.397Z,12.86
2023-04-11T21:05:21.307Z,12.87
2023-04-11T21:07:49.336Z,12.85
2023-04-11T21:10:17.206Z,12.85
2023-04-11T21:12:51.256Z,12.85
2023-04-11T21:15:21.031Z,12.84
2023-04-11T21:17:48.934Z,12.82
2023-04-11T21:20:20.286Z,12.80
2023-04-11T21:22:50.609Z,12.78
2023-04-11T21:25:18.488Z,12.78
2023-04-11T21:27:48.085Z,12.76
2023-04-11T21:30:17.114Z,12.72
2023-04-11T21:32:47.134Z,12.70
2023-04-11T21:35:15.034Z,12.68
2023-04-11T21:37:42.910Z,12.67
2023-04-11T21:40:12.669Z,12.64
2023-04-11T21:42:41.020Z,12.66
2023-04-11T21:45:10.061Z,12.67
2023-04-11T21:47:38.363Z,12.68
2023-04-11T21:50:09.356Z,12.66
2023-04-11T21:52:37.160Z,12.63
2023-04-11T21:55:08.520Z,12.62
2023-04-11T21:57:37.059Z,12.59
2023-04-11T22:00:06.162Z,12.55
2023-04-11T22:02:34.188Z,12.53
2023-04-11T22:05:06.541Z,12.52
2023-04-11T22:07:47.549Z,12.53
2023-04-11T22:10:30.337Z,12.52
2023-04-11T22:13:03.224Z,12.49
2023-04-11T22:15:33.158Z,12.48
2023-04-11T22:18:02.364Z,12.42
2023-04-11T22:20:30.772Z,12.40
2023-04-11T22:22:59.980Z,12.39
2023-04-11T22:25:27.654Z,12.37
2023-04-11T22:27:56.256Z,12.34
2023-04-11T22:30:24.815Z,12.31
2023-04-11T22:32:54.339Z,12.31
2023-04-11T22:35:22.385Z,12.31
2023-04-11T22:37:50.156Z,12.31
2023-04-11T22:40:22.292Z,12.28
2023-04-11T22:42:51.819Z,12.25
2023-04-11T22:45:20.699Z,12.24
2023-04-11T22:47:53.942Z,12.26
2023-04-11T22:50:22.197Z,12.24
2023-04-11T22:52:50.149Z,12.22
2023-04-11T22:55:21.146Z,12.20
2023-04-11T22:57:49.150Z,12.16
2023-04-11T23:00:19.325Z,12.17
2023-04-11T23:02:47.342Z,12.15
2023-04-11T23:05:16.805Z,12.15
2023-04-11T23:07:44.615Z,12.12
2023-04-11T23:10:14.620Z,12.10
2023-04-11T23:12:44.535Z,12.13
2023-04-11T23:15:13.271Z,12.14
2023-04-11T23:17:41.320Z,12.13
2023-04-11T23:20:13.802Z,12.09
2023-04-11T23:22:43.756Z,12.08
2023-04-11T23:25:12.735Z,12.09
2023-04-11T23:27:40.780Z,12.06
2023-04-11T23:30:12.208Z,12.04
2023-04-11T23:32:40.842Z,12.00
2023-04-11T23:35:09.797Z,12.01
2023-04-11T23:37:37.904Z,11.98
2023-04-11T23:40:10.428Z,11.98
2023-04-11T23:42:38.602Z,11.98
2023-04-11T23:45:07.199Z,11.98
2023-04-11T23:47:36.650Z,11.98
2023-04-11T23:50:05.368Z,11.95
2023-04-11T23:52:33.434Z,11.94
2023-04-11T23:55:01.194Z,11.96
2023-04-11T23:57:29.024Z,11.94
2023-04-11T23:59:56.797Z,11.94
